createdAt,value
2023-03-26T00:02:06.940Z,82.12
2023-03-26T00:04:35.588Z,82.14
2023-03-26T00:07:05.108Z,82.14
2023-03-26T00:09:35.152Z,83.55
2023-03-26T00:12:03.887Z,83.75
2023-03-26T00:14:32.649Z,82.82
2023-03-26T00:17:01.313Z,83.08
2023-03-26T00:19:30.145Z,83.47
2023-03-26T00:21:58.767Z,82.32
2023-03-26T00:24:29.617Z,82.66
2023-03-26T00:26:59.648Z,84.12
2023-03-26T00:29:28.786Z,85.20
2023-03-26T00:31:57.403Z,84.49
2023-03-26T00:34:26.802Z,84.69
2023-03-26T00:36:55.729Z,85.38
2023-03-26T00:39:24.441Z,85.25
2023-03-26T00:41:54.255Z,83.74
2023-03-26T00:44:24.613Z,83.02
2023-03-26T00:46:53.353Z,82.98
2023-03-26T00:49:22.007Z,83.12
2023-03-26T00:51:51.145Z,82.33
2023-03-26T00:54:19.833Z,82.32
2023-03-26T00:56:48.479Z,81.88
2023-03-26T00:59:17.556Z,82.77
2023-03-26T01:01:47.482Z,82.69
2023-03-26T01:04:27.548Z,83.30
2023-03-26T01:06:58.459Z,83.04
2023-03-26T01:09:33.869Z,81.97
2023-03-26T01:12:03.924Z,82.24
2023-03-26T01:14:32.606Z,82.86
2023-03-26T01:17:05.935Z,82.22
2023-03-26T01:19:39.090Z,82.09
2023-03-26T01:22:11.112Z,82.00
2023-03-26T01:24:41.917Z,82.56
2023-03-26T01:27:19.107Z,81.93
2023-03-26T01:29:54.177Z,81.75
2023-03-26T01:32:37.649Z,82.00
2023-03-26T01:35:17.234Z,82.79
2023-03-26T01:37:58.441Z,82.21
2023-03-26T01:40:38.518Z,82.14
2023-03-26T01:43:11.959Z,81.23
2023-03-26T01:45:43.564Z,80.73
2023-03-26T01:48:13.154Z,81.62
2023-03-26T01:50:41.804Z,80.72
2023-03-26T01:53:12.576Z,81.10
2023-03-26T01:55:49.750Z,81.55
2023-03-26T01:58:25.792Z,81.27
2023-03-26T02:00:57.922Z,80.40
2023-03-26T02:03:29.250Z,82.25
2023-03-26T02:06:01.504Z,80.79
2023-03-26T02:08:35.636Z,81.72
2023-03-26T02:11:11.533Z,81.75
2023-03-26T02:13:41.431Z,81.73
2023-03-26T02:16:14.267Z,81.98
2023-03-26T02:18:43.766Z,82.74
2023-03-26T02:21:14.399Z,82.14
2023-03-26T02:23:46.874Z,82.20
2023-03-26T02:26:20.169Z,81.14
2023-03-26T02:28:48.791Z,81.82
2023-03-26T02:31:20.127Z,82.25
2023-03-26T02:33:49.544Z,82.17
2023-03-26T02:36:21.903Z,81.66
2023-03-26T02:38:51.496Z,81.06
2023-03-26T02:41:21.559Z,80.28
2023-03-26T02:43:50.404Z,80.80
2023-03-26T02:46:19.060Z,80.52
2023-03-26T02:48:47.834Z,80.05
2023-03-26T02:51:18.210Z,79.79
2023-03-26T02:53:47.418Z,79.74
2023-03-26T02:56:16.141Z,80.13
2023-03-26T02:58:46.897Z,81.39
2023-03-26T03:01:18.541Z,81.46
2023-03-26T03:03:48.412Z,82.78
2023-03-26T03:06:18.825Z,81.52
2023-03-26T03:08:47.770Z,80.30
2023-03-26T03:11:17.910Z,81.15
2023-03-26T03:13:47.981Z,79.85
2023-03-26T03:16:17.208Z,79.65
2023-03-26T03:18:46.504Z,80.00
2023-03-26T03:21:15.225Z,80.56
2023-03-26T03:23:43.814Z,80.65
2023-03-26T03:26:15.515Z,79.69
2023-03-26T03:28:45.066Z,80.73
2023-03-26T03:31:15.024Z,80.80
2023-03-26T03:33:44.001Z,79.71
2023-03-26T03:36:19.751Z,82.69
2023-03-26T03:38:49.991Z,82.97
2023-03-26T03:41:19.209Z,83.42
2023-03-26T03:43:47.846Z,83.90
2023-03-26T03:46:17.896Z,83.99
2023-03-26T03:48:49.595Z,84.41
2023-03-26T03:51:18.307Z,84.63
2023-03-26T03:53:47.470Z,84.19
2023-03-26T03:56:19.068Z,83.94
2023-03-26T03:58:47.934Z,83.95
2023-03-26T04:01:18.639Z,83.37
2023-03-26T04:03:47.464Z,84.30
2023-03-26T04:06:18.979Z,82.78
2023-03-26T04:08:47.758Z,81.89
2023-03-26T04:11:16.472Z,82.65
2023-03-26T04:13:45.512Z,82.24
2023-03-26T04:16:14.308Z,83.24
2023-03-26T04:18:45.203Z,83.43
2023-03-26T04:21:15.882Z,82.08
2023-03-26T04:23:45.239Z,82.73
2023-03-26T04:26:16.859Z,83.59
2023-03-26T04:28:48.299Z,85.18
2023-03-26T04:31:18.827Z,84.52
2023-03-26T04:33:48.872Z,84.68
2023-03-26T04:36:18.040Z,85.17
2023-03-26T04:38:49.154Z,84.24
2023-03-26T04:41:17.735Z,84.02
2023-03-26T04:43:50.674Z,82.62
2023-03-26T04:46:22.303Z,82.59
2023-03-26T04:48:52.583Z,82.64
2023-03-26T04:51:22.488Z,82.78
2023-03-26T04:53:53.745Z,84.23
2023-03-26T04:56:31.667Z,83.61
2023-03-26T04:59:02.533Z,83.30
2023-03-26T05:01:32.068Z,83.83
2023-03-26T05:04:02.076Z,84.63
2023-03-26T05:06:34.230Z,84.23
2023-03-26T05:09:03.224Z,84.57
2023-03-26T05:11:31.906Z,85.20
2023-03-26T05:14:00.548Z,85.41
2023-03-26T05:16:29.535Z,85.38
2023-03-26T05:18:58.299Z,85.27
2023-03-26T05:21:28.264Z,85.15
2023-03-26T05:23:56.862Z,84.94
2023-03-26T05:26:26.026Z,85.50
2023-03-26T05:28:54.632Z,84.54
2023-03-26T05:31:23.364Z,85.71
2023-03-26T05:33:52.112Z,85.66
2023-03-26T05:36:20.714Z,86.17
2023-03-26T05:38:52.343Z,86.81
2023-03-26T05:41:21.006Z,87.26
2023-03-26T05:43:49.615Z,87.43
2023-03-26T05:46:20.281Z,87.98
2023-03-26T05:48:48.982Z,87.94
2023-03-26T05:51:17.581Z,87.40
2023-03-26T05:53:46.243Z,86.91
2023-03-26T05:56:16.276Z,85.58
2023-03-26T05:58:45.034Z,85.94
2023-03-26T06:01:18.496Z,86.63
2023-03-26T06:03:47.460Z,87.36
2023-03-26T06:06:17.594Z,88.31
2023-03-26T06:08:48.834Z,87.91
2023-03-26T06:11:32.795Z,87.78
2023-03-26T06:14:01.784Z,88.51
2023-03-26T06:16:30.414Z,88.25
2023-03-26T06:18:59.155Z,89.29
2023-03-26T06:21:28.077Z,88.06
2023-03-26T06:23:56.695Z,86.59
2023-03-26T06:26:25.740Z,88.53
2023-03-26T06:28:55.837Z,90.00
2023-03-26T06:31:24.585Z,88.70
2023-03-26T06:33:53.475Z,88.58
2023-03-26T06:36:22.108Z,89.14
2023-03-26T06:38:50.791Z,89.51
2023-03-26T06:41:19.435Z,88.86
2023-03-26T06:43:48.205Z,88.32
2023-03-26T06:46:18.741Z,88.19
2023-03-26T06:48:47.578Z,87.58
2023-03-26T06:51:16.285Z,87.48
2023-03-26T06:53:44.941Z,86.65
2023-03-26T06:56:13.535Z,86.29
2023-03-26T06:58:42.180Z,84.85
2023-03-26T07:01:10.838Z,83.75
2023-03-26T07:03:41.060Z,83.28
2023-03-26T07:06:10.423Z,83.04
2023-03-26T07:08:39.060Z,83.56
2023-03-26T07:11:08.062Z,83.22
2023-03-26T07:13:37.599Z,84.83
2023-03-26T07:16:07.025Z,85.30
2023-03-26T07:18:35.686Z,84.95
2023-03-26T07:21:06.662Z,84.68
2023-03-26T07:23:36.209Z,84.02
2023-03-26T07:26:16.642Z,84.63
2023-03-26T07:29:04.939Z,84.55
2023-03-26T07:31:42.064Z,84.49
2023-03-26T07:34:18.660Z,85.44
2023-03-26T07:36:53.364Z,85.49
2023-03-26T07:39:33.752Z,84.96
2023-03-26T07:42:07.712Z,83.74
2023-03-26T07:44:47.543Z,83.84
2023-03-26T07:47:25.842Z,86.33
2023-03-26T07:49:55.776Z,86.07
2023-03-26T07:52:26.685Z,86.94
2023-03-26T07:54:55.843Z,87.38
2023-03-26T07:57:33.205Z,88.04
2023-03-26T08:00:08.227Z,88.24
2023-03-26T08:02:57.268Z,86.14
2023-03-26T08:05:28.018Z,87.03
2023-03-26T08:08:16.467Z,86.16
2023-03-26T08:10:59.610Z,88.03
2023-03-26T08:13:44.109Z,91.95
2023-03-26T08:16:25.501Z,90.04
2023-03-26T08:18:58.125Z,90.10
2023-03-26T08:21:29.509Z,91.09
2023-03-26T08:24:04.825Z,91.63
2023-03-26T08:26:38.540Z,90.09
2023-03-26T08:29:19.574Z,91.92
2023-03-26T08:31:49.516Z,92.30
2023-03-26T08:34:18.198Z,93.13
2023-03-26T08:36:47.528Z,92.50
2023-03-26T08:39:18.161Z,91.18
2023-03-26T08:42:17.430Z,91.77
2023-03-26T08:45:24.196Z,93.30
2023-03-26T08:48:34.813Z,93.10
2023-03-26T08:51:33.878Z,94.01
2023-03-26T08:54:19.079Z,96.48
2023-03-26T08:56:53.981Z,94.96
2023-03-26T09:00:08.886Z,95.75
2023-03-26T09:03:06.272Z,96.54
2023-03-26T09:05:54.840Z,96.90
2023-03-26T09:08:55.226Z,94.66
2023-03-26T09:11:47.095Z,97.86
2023-03-26T09:14:46.152Z,95.76
2023-03-26T09:17:44.752Z,97.02
2023-03-26T09:20:56.312Z,96.42
2023-03-26T09:24:06.601Z,96.82
2023-03-26T09:27:03.976Z,96.59
2023-03-26T09:30:16.824Z,95.58
2023-03-26T09:33:11.894Z,93.86
2023-03-26T09:35:52.833Z,93.45
2023-03-26T09:38:35.829Z,93.84
2023-03-26T09:41:11.007Z,93.38
2023-03-26T09:44:15.879Z,93.86
2023-03-26T09:46:50.125Z,93.56
2023-03-26T09:49:28.624Z,91.12
2023-03-26T09:52:13.183Z,91.98
2023-03-26T09:55:03.685Z,89.56
2023-03-26T09:57:53.602Z,87.39
2023-03-26T10:00:28.637Z,87.34
2023-03-26T10:03:12.897Z,81.91
2023-03-26T10:05:54.678Z,79.66
2023-03-26T10:08:32.703Z,79.88
2023-03-26T10:11:06.509Z,81.42
2023-03-26T10:13:42.237Z,79.50
2023-03-26T10:16:22.626Z,81.02
2023-03-26T10:19:05.319Z,81.87
2023-03-26T10:21:41.411Z,81.90
2023-03-26T10:24:27.838Z,75.14
2023-03-26T10:27:08.971Z,76.05
2023-03-26T10:29:51.974Z,77.28
2023-03-26T10:32:28.277Z,77.61
2023-03-26T10:35:22.372Z,76.95
2023-03-26T10:38:00.155Z,74.40
2023-03-26T10:40:34.022Z,72.00
2023-03-26T10:43:29.203Z,72.39
2023-03-26T10:46:14.731Z,72.12
2023-03-26T10:49:09.813Z,71.12
2023-03-26T10:51:48.565Z,66.33
2023-03-26T10:54:24.388Z,60.29
2023-03-26T10:56:53.616Z,63.58
2023-03-26T10:59:22.362Z,62.01
2023-03-26T11:01:57.278Z,57.87
2023-03-26T11:04:35.634Z,60.17
2023-03-26T11:07:11.257Z,58.82
2023-03-26T11:09:45.297Z,60.14
2023-03-26T11:12:26.791Z,60.30
2023-03-26T11:15:08.871Z,58.87
2023-03-26T11:17:44.818Z,59.81
2023-03-26T11:20:18.605Z,58.37
2023-03-26T11:22:57.906Z,55.86
2023-03-26T11:25:36.095Z,56.72
2023-03-26T11:28:13.988Z,54.04
2023-03-26T11:30:47.754Z,55.53
2023-03-26T11:33:19.446Z,53.06
2023-03-26T11:35:51.196Z,51.71
2023-03-26T11:38:24.368Z,51.41
2023-03-26T11:40:55.819Z,52.49
2023-03-26T11:43:27.423Z,50.80
2023-03-26T11:45:56.305Z,52.70
2023-03-26T11:48:28.577Z,51.27
2023-03-26T11:51:02.522Z,50.35
2023-03-26T11:53:34.648Z,49.56
2023-03-26T11:56:05.673Z,50.15
2023-03-26T11:58:38.306Z,50.01
2023-03-26T12:01:15.345Z,50.06
2023-03-26T12:03:44.201Z,49.99
2023-03-26T12:06:25.549Z,51.18
2023-03-26T12:08:56.927Z,52.25
2023-03-26T12:11:28.047Z,50.01
2023-03-26T12:14:00.200Z,48.54
2023-03-26T12:16:29.409Z,46.79
2023-03-26T12:19:03.897Z,43.02
2023-03-26T12:21:46.067Z,44.49
2023-03-26T12:24:28.396Z,43.52
2023-03-26T12:27:02.192Z,44.85
2023-03-26T12:29:34.287Z,47.15
2023-03-26T12:32:10.094Z,43.33
2023-03-26T12:34:39.369Z,43.49
2023-03-26T12:37:33.056Z,44.91
2023-03-26T12:40:17.142Z,43.75
2023-03-26T12:44:51.112Z,42.79
2023-03-26T12:45:44.278Z,43.68
2023-03-26T12:48:15.494Z,55.94
2023-03-26T12:50:57.068Z,42.50
2023-03-26T12:53:53.532Z,43.73
2023-03-26T12:56:27.369Z,43.79
2023-03-26T12:59:14.129Z,43.61
2023-03-26T13:01:50.397Z,44.27
2023-03-26T13:04:34.309Z,43.26
2023-03-26T13:07:06.458Z,44.83
2023-03-26T13:09:45.819Z,46.15
2023-03-26T13:12:25.132Z,43.90
2023-03-26T13:15:18.803Z,42.21
2023-03-26T13:17:55.503Z,43.11
2023-03-26T13:20:27.215Z,41.80
2023-03-26T13:22:59.433Z,40.88
2023-03-26T13:25:35.229Z,41.78
2023-03-26T13:28:21.694Z,41.08
2023-03-26T13:30:58.533Z,38.65
2023-03-26T13:33:43.381Z,37.66
2023-03-26T13:36:23.718Z,39.46
2023-03-26T13:39:07.524Z,39.89
2023-03-26T13:41:48.283Z,38.10
2023-03-26T13:44:24.827Z,39.10
2023-03-26T13:46:54.562Z,38.54
2023-03-26T13:49:29.055Z,39.93
2023-03-26T13:51:59.823Z,39.39
2023-03-26T13:54:31.819Z,39.05
2023-03-26T13:57:08.551Z,38.72
2023-03-26T13:59:40.552Z,38.70
2023-03-26T14:02:12.369Z,39.33
2023-03-26T14:04:43.766Z,40.24
2023-03-26T14:07:15.804Z,39.88
2023-03-26T14:09:48.432Z,40.20
2023-03-26T14:12:31.470Z,40.34
2023-03-26T14:15:02.210Z,40.05
2023-03-26T14:17:36.405Z,41.52
2023-03-26T14:20:50.187Z,40.11
2023-03-26T14:23:54.155Z,41.27
2023-03-26T14:26:30.549Z,46.40
2023-03-26T14:29:29.012Z,53.26
2023-03-26T14:32:07.708Z,52.84
2023-03-26T14:34:46.734Z,53.72
2023-03-26T14:37:34.832Z,54.63
2023-03-26T14:40:27.028Z,62.73
2023-03-26T14:43:05.674Z,67.77
2023-03-26T14:45:54.045Z,67.88
2023-03-26T14:48:42.796Z,70.50
2023-03-26T14:51:20.594Z,71.28
2023-03-26T14:53:51.607Z,71.53
2023-03-26T14:56:38.667Z,70.39
2023-03-26T14:59:54.743Z,70.87
2023-03-26T15:03:04.062Z,71.17
2023-03-26T15:05:49.430Z,73.48
2023-03-26T15:08:49.109Z,73.11
2023-03-26T15:11:25.735Z,74.53
2023-03-26T15:14:04.877Z,72.97
2023-03-26T15:17:10.016Z,74.32
2023-03-26T15:19:56.255Z,71.84
2023-03-26T15:22:40.389Z,72.01
2023-03-26T15:25:33.195Z,72.67
2023-03-26T15:28:35.444Z,73.59
2023-03-26T15:31:31.061Z,75.78
2023-03-26T15:34:30.332Z,75.50
2023-03-26T15:37:35.239Z,73.24
2023-03-26T15:40:36.206Z,74.16
2023-03-26T15:43:11.325Z,74.04
2023-03-26T15:45:42.029Z,74.42
2023-03-26T15:48:35.239Z,76.73
2023-03-26T15:51:26.613Z,74.81
2023-03-26T15:54:01.648Z,74.73
2023-03-26T15:56:49.066Z,76.30
2023-03-26T15:59:29.429Z,77.03
2023-03-26T16:02:03.929Z,77.04
2023-03-26T16:04:50.685Z,78.17
2023-03-26T16:07:47.010Z,75.99
2023-03-26T16:10:29.119Z,77.90
2023-03-26T16:13:18.989Z,76.87
2023-03-26T16:15:51.626Z,76.72
2023-03-26T16:18:27.113Z,77.16
2023-03-26T16:20:57.188Z,77.29
2023-03-26T16:23:29.397Z,76.70
2023-03-26T16:26:00.366Z,75.64
2023-03-26T16:28:35.456Z,76.40
2023-03-26T16:31:37.356Z,76.46
2023-03-26T16:34:23.476Z,76.06
2023-03-26T16:36:54.098Z,75.60
2023-03-26T16:39:24.508Z,76.58
2023-03-26T16:41:56.949Z,74.85
2023-03-26T16:44:44.346Z,75.41
2023-03-26T16:47:24.328Z,75.39
2023-03-26T16:50:08.516Z,75.60
2023-03-26T16:52:45.449Z,74.55
2023-03-26T16:55:20.620Z,74.48
2023-03-26T16:57:56.148Z,74.75
2023-03-26T17:00:37.095Z,74.18
2023-03-26T17:03:33.764Z,74.25
2023-03-26T17:06:06.355Z,75.21
2023-03-26T17:08:42.571Z,73.75
2023-03-26T17:11:22.267Z,73.54
2023-03-26T17:14:03.170Z,73.92
2023-03-26T17:16:36.625Z,74.20
2023-03-26T17:19:15.245Z,73.23
2023-03-26T17:21:52.775Z,74.42
2023-03-26T17:24:28.682Z,74.67
2023-03-26T17:27:02.394Z,74.68
2023-03-26T17:29:43.748Z,74.24
2023-03-26T17:32:15.105Z,74.61
2023-03-26T17:34:56.904Z,73.84
2023-03-26T17:37:47.770Z,74.57
2023-03-26T17:40:50.982Z,74.80
2023-03-26T17:43:43.359Z,75.46
2023-03-26T17:46:21.538Z,75.57
2023-03-26T17:48:58.108Z,75.16
2023-03-26T17:51:38.716Z,75.30
2023-03-26T17:54:09.289Z,76.25
2023-03-26T17:56:38.835Z,76.00
2023-03-26T17:59:11.341Z,76.75
2023-03-26T18:01:44.139Z,77.59
2023-03-26T18:04:18.710Z,76.78
2023-03-26T18:07:09.547Z,76.04
2023-03-26T18:09:49.613Z,76.38
2023-03-26T18:12:40.799Z,74.72
2023-03-26T18:15:22.956Z,74.59
2023-03-26T18:17:51.733Z,74.37
2023-03-26T18:20:24.414Z,74.65
2023-03-26T18:22:53.465Z,74.52
2023-03-26T18:25:26.175Z,74.55
2023-03-26T18:27:57.376Z,74.19
2023-03-26T18:30:26.945Z,74.23
2023-03-26T18:33:01.972Z,74.05
2023-03-26T18:35:42.180Z,74.89
2023-03-26T18:38:15.509Z,74.10
2023-03-26T18:40:44.993Z,74.48
2023-03-26T18:43:28.657Z,75.25
2023-03-26T18:46:04.317Z,74.77
2023-03-26T18:48:33.017Z,74.45
2023-03-26T18:51:05.864Z,74.84
2023-03-26T18:53:38.826Z,74.83
2023-03-26T18:56:20.529Z,75.18
2023-03-26T18:58:52.472Z,74.31
2023-03-26T19:01:25.966Z,74.64
2023-03-26T19:03:55.474Z,74.79
2023-03-26T19:06:25.976Z,74.88
2023-03-26T19:08:54.864Z,74.27
2023-03-26T19:11:23.754Z,76.20
2023-03-26T19:14:03.249Z,74.68
2023-03-26T19:16:36.340Z,74.42
2023-03-26T19:19:07.010Z,75.45
2023-03-26T19:21:37.507Z,75.59
2023-03-26T19:24:06.849Z,75.13
2023-03-26T19:26:36.489Z,75.28
2023-03-26T19:29:05.512Z,75.43
2023-03-26T19:31:35.663Z,76.16
2023-03-26T19:34:15.552Z,75.29
2023-03-26T19:36:58.053Z,76.23
2023-03-26T19:39:37.122Z,75.37
2023-03-26T19:42:07.376Z,74.90
2023-03-26T19:44:39.485Z,75.76
2023-03-26T19:47:13.230Z,74.91
2023-03-26T19:49:43.341Z,76.13
2023-03-26T19:52:15.889Z,76.31
2023-03-26T19:54:59.430Z,76.12
2023-03-26T19:57:30.742Z,77.35
2023-03-26T19:59:59.635Z,76.39
2023-03-26T20:02:29.033Z,76.65
2023-03-26T20:04:58.189Z,77.88
2023-03-26T20:07:35.643Z,77.99
2023-03-26T20:10:06.472Z,77.33
2023-03-26T20:12:35.154Z,78.37
2023-03-26T20:18:01.584Z,77.10
2023-03-26T20:20:30.687Z,77.17
2023-03-26T20:23:01.483Z,77.76
2023-03-26T20:25:32.757Z,77.97
2023-03-26T20:28:01.601Z,77.35
2023-03-26T20:33:12.789Z,79.64
2023-03-26T20:35:42.721Z,78.39
2023-03-26T20:38:12.844Z,77.73
2023-03-26T20:40:42.325Z,76.94
2023-03-26T20:43:13.630Z,77.12
2023-03-26T20:45:42.703Z,77.10
2023-03-26T20:48:11.967Z,77.29
2023-03-26T20:50:50.451Z,77.59
2023-03-26T20:53:21.223Z,76.65
2023-03-26T20:55:51.540Z,75.72
2023-03-26T20:58:31.170Z,75.44
2023-03-26T21:01:02.556Z,74.45
2023-03-26T21:03:31.307Z,74.26
2023-03-26T21:06:03.472Z,74.29
2023-03-26T21:08:37.056Z,75.43
2023-03-26T21:11:12.479Z,75.37
2023-03-26T21:13:44.854Z,75.42
2023-03-26T21:16:14.475Z,75.83
2023-03-26T21:18:43.686Z,74.07
2023-03-26T21:21:24.412Z,74.37
2023-03-26T21:24:00.231Z,75.14
2023-03-26T21:26:31.696Z,75.25
2023-03-26T21:29:00.848Z,75.38
2023-03-26T21:31:36.465Z,75.07
2023-03-26T21:34:06.206Z,76.01
2023-03-26T21:36:35.466Z,76.13
2023-03-26T21:39:06.409Z,76.36
2023-03-26T21:41:45.828Z,76.31
2023-03-26T21:44:15.245Z,76.93
2023-03-26T21:46:45.500Z,79.07
2023-03-26T21:49:16.677Z,80.34
2023-03-26T21:51:46.343Z,80.85
2023-03-26T21:54:27.953Z,81.56
2023-03-26T21:57:14.092Z,82.23
2023-03-26T21:59:47.759Z,84.07
2023-03-26T22:02:21.245Z,85.31
2023-03-26T22:04:53.196Z,85.97
2023-03-26T22:07:24.780Z,84.93
2023-03-26T22:09:55.335Z,87.64
2023-03-26T22:12:25.531Z,87.70
2023-03-26T22:14:54.205Z,88.42
2023-03-26T22:17:23.678Z,88.06
2023-03-26T22:19:52.319Z,88.47
2023-03-26T22:22:22.098Z,89.05
2023-03-26T22:24:50.739Z,89.56
2023-03-26T22:27:21.059Z,89.27
2023-03-26T22:29:50.106Z,90.36
2023-03-26T22:32:18.768Z,91.62
2023-03-26T22:34:47.339Z,89.59
2023-03-26T22:37:16.128Z,91.30
2023-03-26T22:39:44.780Z,91.06
2023-03-26T22:42:13.882Z,91.26
2023-03-26T22:44:43.873Z,91.65
2023-03-26T22:47:13.595Z,92.65
2023-03-26T22:49:42.330Z,92.69
2023-03-26T22:52:11.155Z,92.73
2023-03-26T22:54:39.794Z,93.44
2023-03-26T22:57:08.500Z,94.33
2023-03-26T22:59:37.191Z,93.49
2023-03-26T23:02:07.262Z,94.05
2023-03-26T23:04:37.536Z,93.91
2023-03-26T23:07:06.701Z,94.45
2023-03-26T23:09:36.521Z,93.80
2023-03-26T23:12:05.794Z,94.07
2023-03-26T23:14:34.438Z,95.65
2023-03-26T23:17:03.629Z,95.11
2023-03-26T23:19:34.620Z,95.23
2023-03-26T23:22:03.200Z,95.17
2023-03-26T23:24:31.770Z,95.30
2023-03-26T23:27:00.362Z,95.22
2023-03-26T23:29:30.019Z,93.55
2023-03-26T23:31:59.692Z,94.45
2023-03-26T23:34:28.440Z,94.37
2023-03-26T23:36:58.447Z,94.36
2023-03-26T23:39:28.553Z,94.71
2023-03-26T23:41:57.158Z,95.11
2023-03-26T23:44:25.750Z,95.58
2023-03-26T23:46:57.923Z,95.02
2023-03-26T23:49:26.893Z,94.61
2023-03-26T23:51:55.559Z,93.92
2023-03-26T23:54:25.614Z,94.71
2023-03-26T23:56:55.000Z,94.05
2023-03-26T23:59:23.684Z,93.78
